Flight Track Log - Related Links

Times and Time Zones

All times are in EST time to prevent confusion due to time zone crossing. See the PDT4155 flight status page for this flight to view local times or setup timezone preferences in your user account.

Time Position Orientation Groundspeed Altitude Reporting Facility
EST Latitude Longitude Course Direction KTS MPH feet Rate Location/Type
Fri 07:02:00 AM 42.0100 -75.9147 180° South  Level Estimated
Fri 07:03:00 AM 41.9590 -75.9184 183° South  Level FlightAware Approximate
Fri 07:04:00 AM 41.9081 -75.9220 183° South  Level FlightAware Approximate
Fri 07:05:00 AM 41.8586 -75.9050 154° Southeast  Level Estimated
Fri 07:06:00 AM 41.8076 -75.9034 179° South  Level FlightAware Approximate
Fri 07:07:00 AM 41.7582 -75.8860 160° South  Level Estimated
Fri 07:08:00 AM 41.7089 -75.8686 159° South  Level Estimated
Fri 07:09:00 AM 41.6593 -75.8523 166° South  Level FlightAware Approximate
Fri 07:10:00 AM 41.6097 -75.8360 166° South  Level FlightAware Approximate
Fri 07:11:00 AM 41.5604 -75.8186 153° Southeast  Level Estimated
Fri 07:12:00 AM 41.5110 -75.8013 161° South  Level Estimated
Fri 07:13:00 AM 41.4630 -75.7780 160° South  Level FlightAware Approximate
Fri 07:14:00 AM 41.4150 -75.7548 160° South  Level FlightAware Approximate
Fri 07:15:00 AM 41.3670 -75.7317 160° South  Level FlightAware Approximate
Fri 07:16:00 AM 41.3175 -75.7150 162° South  Level Estimated
Fri 07:17:00 AM 41.2694 -75.6925 161° South  Level FlightAware Approximate
Fri 07:18:00 AM 41.2212 -75.6699 161° South  Level FlightAware Approximate
Fri 07:19:00 AM 41.1731 -75.6474 161° South  Level FlightAware Approximate
Fri 07:20:00 AM 41.1250 -75.6249 161° South  Level FlightAware Approximate
Fri 07:21:00 AM 41.0753 -75.6094 159° South  Level Estimated
Fri 07:22:00 AM 41.0256 -75.5939 163° South  Level Estimated
Fri 07:23:00 AM 40.9774 -75.5714 161° South  Level FlightAware Approximate
Fri 07:23:31 AM 40.8333 -75.6333 182° South 216 249 6,100  Level Philadelphia TRACON
Fri 07:24:00 AM 40.9293 -75.5489 161° South  Level FlightAware Approximate
Fri 07:24:55 AM 40.7500 -75.6333 180° South 216 249 6,100  Level Philadelphia TRACON
Fri 07:25:00 AM 40.8812 -75.5264 161° South  Level FlightAware Approximate
Fri 07:25:43 AM 40.7000 -75.6333 180° South 215 247 6,100  Level Philadelphia TRACON
Fri 07:26:00 AM 40.8330 -75.5040 161° South  Level FlightAware Approximate
Fri 07:26:43 AM 40.6500 -75.6167 166° South 224 258 5,600  Level Philadelphia TRACON
Fri 07:27:00 AM 40.7831 -75.4902 190° South  Level Estimated
Fri 07:27:50 AM 40.5667 -75.6000 171° South 241 277 5,000  Level Philadelphia TRACON
Fri 07:28:00 AM 40.7320 -75.4919 182° South  Level FlightAware Approximate
Fri 07:29:14 AM 40.5000 -75.5333 143° Southeast 230 265 5,000  Level Philadelphia TRACON
Fri 07:30:02 AM 40.4500 -75.5000 153° Southeast 227 261 5,000  Level Philadelphia TRACON
Fri 07:31:02 AM 40.4000 -75.4500 143° Southeast 227 261 5,000  Level Philadelphia TRACON
Fri 07:32:02 AM 40.3500 -75.4167 153° Southeast 227 261 5,000 -476 Level Philadelphia TRACON
Fri 07:33:08 AM 40.2833 -75.3500 143° Southeast 253 291 4,000 -476 Descending Philadelphia TRACON
Fri 07:34:08 AM 40.2333 -75.3000 143° Southeast 241 277 4,000  Level Philadelphia TRACON
Fri 07:35:08 AM 40.1667 -75.2667 159° South 232 267 4,000  Level Philadelphia TRACON
Fri 07:36:08 AM 40.1167 -75.2167 143° Southeast 233 268 4,000  Level Philadelphia TRACON
Fri 07:37:08 AM 40.0667 -75.1667 143° Southeast 233 268 4,000 -300 Level Philadelphia TRACON
Fri 07:38:08 AM 40.0000 -75.1333 159° South 236 272 3,400 -900 Descending Philadelphia TRACON
Fri 07:39:08 AM 39.9500 -75.1333 180° South 205 236 2,200 -900 Descending Philadelphia TRACON
Fri 07:40:08 AM 39.9000 -75.1500 194° South 128 147 1,600 -750 Descending Philadelphia TRACON
Fri 07:41:08 AM 39.8833 -75.1833 237° Southwest 101 116 700 -900 Descending Philadelphia TRACON

Login

Don't have an account? Register now (free) for customized features, flight alerts, and more!